• Join FlightAware (Why Join?)
  • Login
  • US Flag 
01:43AM EST


 

Airport Tracker/Info


-or-


 

Live Flight TrackerFlight Track Log ✈ SWA2139 ✈ 06-May-2013 ✈ KAUS - KELP

Flight Track Log - Related Links

Times and Time Zones

All times are in EDT time to prevent confusion due to time zone crossing. See the SWA2139 flight status page for this flight to view local times or setup timezone preferences in your user account.

Time Position Orientation Groundspeed Altitude Reporting Facility
EDT Latitude Longitude Course Direction KTS MPH feet Rate Location/Type
08:32AM 30.1503 -97.7436 284° West 228 262 4,400  Level Houston Center
08:33AM 30.2164 -97.7797 335° Northwest 258 297 7,600 2,984 Climbing Houston Center
08:35AM 30.2736 -97.9750 289° West 325 374 13,600 2,919 Climbing Houston Center
08:36AM 30.3400 -98.3330 284° West  Level Estimated
08:36AM 30.2967 -98.0842 284° West 344 396 16,600  Level Houston Center
08:37AM 30.3639 -98.4440 284° West  Level Estimated
08:37AM 30.3206 -98.1986 284° West 356 410 18,800  Level Houston Center
08:39AM 30.3703 -98.4411 283° West 382 440 23,600 2,097 Climbing Houston Center
08:40AM 30.3953 -98.5625 283° West 382 440 25,300 1,756 Climbing Houston Center
08:41AM 30.4203 -98.6872 283° West 392 451 27,200 1,902 Climbing Houston Center
08:42AM 30.4453 -98.8128 283° West 396 456 29,200 2,032 Climbing Houston Center
08:43AM 30.4725 -98.9364 284° West 393 452 31,400 1,951 Climbing Houston Center
08:44AM 30.4953 -99.0547 283° West 377 434 33,200 1,707 Climbing Houston Center
08:45AM 30.5186 -99.1692 283° West 368 423 34,900 1,355 Climbing Houston Center
08:46AM 30.5406 -99.2803 283° West 358 412 36,000 532 Climbing Houston Center
08:47AM 30.5686 -99.4153 284° West 359 413 36,000  Level Houston Center
08:48AM 30.5894 -99.5258 282° West 355 409 36,000  Level Houston Center
08:50AM 30.6369 -99.6850 289° West  Level FlightAware Approximate
08:50AM 30.6333 -99.7458 289° West 351 404 36,000  Level Houston Center
08:51AM 30.6536 -99.8572 282° West 353 406 36,000  Level Houston Center
08:53AM 30.7053 -100.0042 292° West  Level FlightAware Approximate
08:54AM 30.7211 -100.2092 281° West 349 402 36,000  Level Houston Center
08:55AM 30.7422 -100.3178 283° West 346 398 36,000  Level Houston Center
08:56AM 30.7636 -100.4278 283° West 352 405 36,000  Level Houston Center
08:57AM 30.7831 -100.5375 282° West 353 406 36,000  Level Houston Center
08:59AM 30.8281 -100.7797 282° West 350 403 36,000 -32 Level Houston Center
09:00AM 30.9185 -100.7887 281° West  Level FlightAware Approximate
09:00AM 30.8492 -100.8906 283° West 353 406 35,900  Level Houston Center
09:01AM 30.8689 -101.0003 282° West 352 405 36,000 32 Climbing Houston Center
09:03AM 30.8960 -101.1193 285° West  Level FlightAware Approximate
09:04AM 30.9114 -101.2200 285° West 349 402 36,000  Level Houston Center
09:05AM 30.9322 -101.3369 282° West 355 409 36,000  Level Houston Center
09:06AM 30.9586 -101.4967 281° West 361 415 36,000  Level Albuquerque Center
09:07AM 30.9808 -101.6108 283° West 362 417 36,000  Level Albuquerque Center
09:08AM 31.0006 -101.7272 281° West 365 420 36,000  Level Albuquerque Center
09:10AM 31.0386 -101.9397 282° West 370 426 36,000  Level Houston Center
09:11AM 31.0589 -102.0589 281° West 374 430 36,000  Level Houston Center
09:12AM 31.0789 -102.1761 281° West 370 426 36,000  Level Houston Center
09:13AM 31.1056 -102.3336 281° West 371 427 36,000  Level Albuquerque Center
09:14AM 31.1261 -102.4494 282° West 366 421 36,000  Level Albuquerque Center
09:15AM 31.1456 -102.5558 282° West 362 417 36,000  Level Albuquerque Center
09:16AM 31.1694 -102.6692 284° West 357 411 36,000  Level Albuquerque Center
09:17AM 31.1928 -102.7833 283° West 360 414 36,000  Level Albuquerque Center
09:19AM 31.2406 -103.0100 284° West 358 412 36,000  Level Houston Center
09:20AM 31.2656 -103.1461 282° West 361 415 36,000  Level Albuquerque Center
09:21AM 31.2869 -103.2597 282° West 358 412 36,000  Level Albuquerque Center
09:22AM 31.3117 -103.3731 284° West 358 412 36,000  Level Albuquerque Center
09:23AM 31.3339 -103.4875 283° West 360 414 36,000  Level Albuquerque Center
09:24AM 31.3556 -103.6025 282° West 362 417 36,000  Level Albuquerque Center
09:25AM 31.3781 -103.7206 283° West 368 423 36,000  Level Albuquerque Center
09:26AM 31.4017 -103.8456 283° West 372 428 36,000  Level Albuquerque Center
09:27AM 31.4264 -103.9647 284° West 375 432 36,000  Level Albuquerque Center
09:28AM 31.4500 -104.0847 283° West 378 435 36,000  Level Albuquerque Center
09:29AM 31.4719 -104.2031 282° West 376 433 36,000  Level Albuquerque Center
09:30AM 31.4950 -104.3197 283° West 371 427 36,000  Level Albuquerque Center
09:31AM 31.5178 -104.4353 283° West 367 422 36,000  Level Albuquerque Center
09:32AM 31.5386 -104.5506 282° West 364 419 36,000  Level Albuquerque Center
09:33AM 31.5608 -104.6647 283° West 362 417 36,000 -1,140 Level Albuquerque Center
09:34AM 31.5822 -104.7811 282° West 365 420 33,700 -2,459 Descending Albuquerque Center
09:35AM 31.6042 -104.8994 282° West 371 427 31,000 -2,656 Descending Albuquerque Center
09:36AM 31.6303 -105.0356 283° West 361 415 28,300 -2,410 Descending Albuquerque Center
09:37AM 31.6492 -105.1447 282° West 348 400 26,100 -2,164 Descending Albuquerque Center
09:38AM 31.6703 -105.2531 283° West 343 395 23,900 -2,237 Descending Albuquerque Center
09:39AM 31.6869 -105.3669 280° West 350 403 21,700 -2,270 Descending Albuquerque Center
09:40AM 31.7056 -105.4647 283° West 343 395 19,700 -2,000 Descending Albuquerque Center
09:41AM 31.7275 -105.5764 283° West 325 374 17,500 -2,172 Descending Albuquerque Center
09:42AM 31.7383 -105.6614 279° West 320 368 15,500 -2,262 Descending Albuquerque Center
09:42AM 31.7400 -105.6814 276° West 326 375 15,200 -1,846 Descending Albuquerque Center
09:43AM 31.7492 -105.7839 276° West 319 367 13,100 -2,204 Descending Albuquerque Center
09:44AM 31.7556 -105.8572 276° West 316 364 11,600 -1,610 Descending Albuquerque Center
09:45AM 31.7689 -105.9794 277° West 293 337 9,800 -1,067 Descending Albuquerque Center
09:48AM 31.7842 -106.1586 276° West 244 281 7,900 -984 Descending Albuquerque Center
09:49AM 31.7908 -106.2214 277° West 198 228 6,800 -1,137 Descending Albuquerque Center
09:49AM 31.7919 -106.2528 272° West 159 183 6,100 -1,279 Descending Albuquerque Center
09:50AM 31.7953 -106.2725 281° West 161 185 5,500 -1,082 Descending Albuquerque Center
09:50AM 31.7967 -106.3017 273° West 145 167 5,000 -787 Descending Albuquerque Center
09:51AM 31.7986 -106.3203 277° West 148 170 4,700 -455 Descending Albuquerque Center
09:51AM 31.8025 -106.3453 280° West 141 162 4,500 -308 Descending Albuquerque Center
09:53AM 31.8000 -106.3667 270° West  Level FlightAware Approximate
10:00AM 31.8072 -106.3764 270° West  Level Estimated
10:01AM 31.8072 -106.3764 270° West  Level Estimated
10:02AM 31.8072 -106.3764 270° West  Level Estimated
10:03AM 31.8072 -106.3764 270° West  Level Estimated
10:04AM 31.8072 -106.3764 270° West  Level Estimated
10:05AM 31.8072 -106.3764 270° West  Level Estimated